sensor_id;sensor_type;location;lat;lon;timestamp;P1;durP1;ratioP1;P2;durP2;ratioP2
19285;SDS011;9776;50.798;6.430;2023-06-10T00:01:33;9.27;;;7.03;;
19285;SDS011;9776;50.798;6.430;2023-06-10T00:04:03;8.02;;;6.90;;
19285;SDS011;9776;50.798;6.430;2023-06-10T00:06:30;7.85;;;7.03;;
19285;SDS011;9776;50.798;6.430;2023-06-10T00:09:00;8.52;;;6.88;;
19285;SDS011;9776;50.798;6.430;2023-06-10T00:11:29;9.75;;;7.35;;
19285;SDS011;9776;50.798;6.430;2023-06-10T00:13:56;8.52;;;7.28;;
19285;SDS011;9776;50.798;6.430;2023-06-10T00:16:22;10.98;;;7.18;;
19285;SDS011;9776;50.798;6.430;2023-06-10T00:18:50;7.88;;;7.07;;
19285;SDS011;9776;50.798;6.430;2023-06-10T00:21:18;7.85;;;7.05;;
19285;SDS011;9776;50.798;6.430;2023-06-10T00:23:45;8.18;;;6.97;;
19285;SDS011;9776;50.798;6.430;2023-06-10T00:26:11;7.80;;;6.72;;
19285;SDS011;9776;50.798;6.430;2023-06-10T00:28:38;9.55;;;7.70;;
19285;SDS011;9776;50.798;6.430;2023-06-10T00:31:06;9.38;;;7.53;;
19285;SDS011;9776;50.798;6.430;2023-06-10T00:33:32;10.60;;;7.28;;
19285;SDS011;9776;50.798;6.430;2023-06-10T00:35:59;8.68;;;7.30;;
19285;SDS011;9776;50.798;6.430;2023-06-10T00:38:27;8.43;;;7.53;;
19285;SDS011;9776;50.798;6.430;2023-06-10T00:40:54;8.70;;;7.80;;
19285;SDS011;9776;50.798;6.430;2023-06-10T00:43:20;12.07;;;8.13;;
19285;SDS011;9776;50.798;6.430;2023-06-10T00:45:47;10.40;;;7.65;;
19285;SDS011;9776;50.798;6.430;2023-06-10T00:48:13;9.73;;;7.93;;
19285;SDS011;9776;50.798;6.430;2023-06-10T00:50:40;8.48;;;7.55;;
19285;SDS011;9776;50.798;6.430;2023-06-10T00:53:07;9.15;;;7.85;;
19285;SDS011;9776;50.798;6.430;2023-06-10T00:55:36;9.27;;;7.93;;
19285;SDS011;9776;50.798;6.430;2023-06-10T00:58:03;10.50;;;8.23;;
19285;SDS011;9776;50.798;6.430;2023-06-10T01:00:29;8.63;;;7.78;;
19285;SDS011;9776;50.798;6.430;2023-06-10T01:02:56;10.45;;;7.97;;
19285;SDS011;9776;50.798;6.430;2023-06-10T01:05:23;10.48;;;8.07;;
19285;SDS011;9776;50.798;6.430;2023-06-10T01:07:53;8.85;;;7.78;;
19285;SDS011;9776;50.798;6.430;2023-06-10T01:10:29;9.07;;;7.95;;
19285;SDS011;9776;50.798;6.430;2023-06-10T01:13:05;10.10;;;8.20;;
19285;SDS011;9776;50.798;6.430;2023-06-10T01:15:36;9.45;;;8.05;;
19285;SDS011;9776;50.798;6.430;2023-06-10T01:18:05;10.45;;;8.63;;
19285;SDS011;9776;50.798;6.430;2023-06-10T01:20:34;10.13;;;8.27;;
19285;SDS011;9776;50.798;6.430;2023-06-10T01:23:03;9.40;;;8.25;;
19285;SDS011;9776;50.798;6.430;2023-06-10T01:25:29;9.07;;;8.18;;
19285;SDS011;9776;50.798;6.430;2023-06-10T01:27:59;10.70;;;8.20;;
19285;SDS011;9776;50.798;6.430;2023-06-10T01:30:32;11.52;;;8.90;;
19285;SDS011;9776;50.798;6.430;2023-06-10T01:33:05;9.65;;;8.32;;
19285;SDS011;9776;50.798;6.430;2023-06-10T01:35:35;11.23;;;9.18;;
19285;SDS011;9776;50.798;6.430;2023-06-10T01:38:05;11.70;;;9.05;;
19285;SDS011;9776;50.798;6.430;2023-06-10T01:40:33;10.80;;;8.70;;
19285;SDS011;9776;50.798;6.430;2023-06-10T01:43:00;9.60;;;8.60;;
19285;SDS011;9776;50.798;6.430;2023-06-10T01:45:27;11.68;;;9.57;;
19285;SDS011;9776;50.798;6.430;2023-06-10T01:47:54;11.68;;;9.50;;
19285;SDS011;9776;50.798;6.430;2023-06-10T01:50:21;12.35;;;9.25;;
19285;SDS011;9776;50.798;6.430;2023-06-10T01:52:47;11.35;;;9.00;;
19285;SDS011;9776;50.798;6.430;2023-06-10T01:55:15;11.00;;;9.48;;
19285;SDS011;9776;50.798;6.430;2023-06-10T01:57:42;9.77;;;8.77;;
19285;SDS011;9776;50.798;6.430;2023-06-10T02:00:09;11.35;;;9.00;;
19285;SDS011;9776;50.798;6.430;2023-06-10T02:02:36;11.77;;;8.85;;
19285;SDS011;9776;50.798;6.430;2023-06-10T02:05:03;10.25;;;8.73;;
19285;SDS011;9776;50.798;6.430;2023-06-10T02:07:30;9.73;;;8.65;;
19285;SDS011;9776;50.798;6.430;2023-06-10T02:09:57;12.07;;;8.35;;
19285;SDS011;9776;50.798;6.430;2023-06-10T02:12:25;10.80;;;8.63;;
19285;SDS011;9776;50.798;6.430;2023-06-10T02:14:51;11.48;;;8.93;;
19285;SDS011;9776;50.798;6.430;2023-06-10T02:17:18;10.50;;;9.00;;
19285;SDS011;9776;50.798;6.430;2023-06-10T02:19:45;13.48;;;8.20;;
19285;SDS011;9776;50.798;6.430;2023-06-10T02:22:17;10.75;;;8.57;;
19285;SDS011;9776;50.798;6.430;2023-06-10T02:24:44;9.95;;;8.77;;
19285;SDS011;9776;50.798;6.430;2023-06-10T02:27:10;11.00;;;8.88;;
19285;SDS011;9776;50.798;6.430;2023-06-10T02:29:38;10.07;;;9.00;;
19285;SDS011;9776;50.798;6.430;2023-06-10T02:32:06;9.90;;;8.52;;
19285;SDS011;9776;50.798;6.430;2023-06-10T02:34:33;10.25;;;8.40;;
19285;SDS011;9776;50.798;6.430;2023-06-10T02:37:01;11.27;;;9.57;;
19285;SDS011;9776;50.798;6.430;2023-06-10T02:39:28;14.05;;;8.93;;
19285;SDS011;9776;50.798;6.430;2023-06-10T02:41:55;11.32;;;8.90;;
19285;SDS011;9776;50.798;6.430;2023-06-10T02:44:21;10.82;;;8.77;;
19285;SDS011;9776;50.798;6.430;2023-06-10T02:46:49;11.27;;;8.57;;
19285;SDS011;9776;50.798;6.430;2023-06-10T02:49:16;13.02;;;8.73;;
19285;SDS011;9776;50.798;6.430;2023-06-10T02:51:43;11.02;;;9.20;;
19285;SDS011;9776;50.798;6.430;2023-06-10T02:54:10;11.23;;;9.20;;
19285;SDS011;9776;50.798;6.430;2023-06-10T02:56:36;12.52;;;9.35;;
19285;SDS011;9776;50.798;6.430;2023-06-10T02:59:06;13.55;;;8.85;;
19285;SDS011;9776;50.798;6.430;2023-06-10T03:01:33;12.85;;;9.07;;
19285;SDS011;9776;50.798;6.430;2023-06-10T03:04:03;13.30;;;9.18;;
19285;SDS011;9776;50.798;6.430;2023-06-10T03:06:30;11.93;;;9.27;;
19285;SDS011;9776;50.798;6.430;2023-06-10T03:08:59;12.82;;;9.27;;
19285;SDS011;9776;50.798;6.430;2023-06-10T03:11:25;11.52;;;8.88;;
19285;SDS011;9776;50.798;6.430;2023-06-10T03:13:52;13.18;;;8.93;;
19285;SDS011;9776;50.798;6.430;2023-06-10T03:16:20;11.57;;;9.13;;
19285;SDS011;9776;50.798;6.430;2023-06-10T03:18:46;10.50;;;9.10;;
19285;SDS011;9776;50.798;6.430;2023-06-10T03:21:15;10.52;;;9.15;;
19285;SDS011;9776;50.798;6.430;2023-06-10T03:23:41;12.68;;;9.27;;
19285;SDS011;9776;50.798;6.430;2023-06-10T03:26:08;10.57;;;9.27;;
19285;SDS011;9776;50.798;6.430;2023-06-10T03:28:35;11.40;;;9.40;;
19285;SDS011;9776;50.798;6.430;2023-06-10T03:31:01;12.55;;;9.35;;
19285;SDS011;9776;50.798;6.430;2023-06-10T03:33:28;12.25;;;9.23;;
19285;SDS011;9776;50.798;6.430;2023-06-10T03:35:55;15.73;;;9.30;;
19285;SDS011;9776;50.798;6.430;2023-06-10T03:38:23;10.48;;;9.20;;
19285;SDS011;9776;50.798;6.430;2023-06-10T03:40:49;12.25;;;9.20;;
19285;SDS011;9776;50.798;6.430;2023-06-10T03:43:16;11.68;;;9.05;;
19285;SDS011;9776;50.798;6.430;2023-06-10T03:45:43;9.65;;;8.65;;
19285;SDS011;9776;50.798;6.430;2023-06-10T03:48:10;11.30;;;9.13;;
19285;SDS011;9776;50.798;6.430;2023-06-10T03:50:36;10.48;;;8.90;;
19285;SDS011;9776;50.798;6.430;2023-06-10T03:53:03;12.30;;;9.15;;
19285;SDS011;9776;50.798;6.430;2023-06-10T03:55:31;12.88;;;9.60;;
19285;SDS011;9776;50.798;6.430;2023-06-10T03:57:57;10.20;;;9.10;;
19285;SDS011;9776;50.798;6.430;2023-06-10T04:00:24;14.75;;;9.40;;
19285;SDS011;9776;50.798;6.430;2023-06-10T04:02:51;13.25;;;9.23;;
19285;SDS011;9776;50.798;6.430;2023-06-10T04:05:17;12.02;;;9.38;;
19285;SDS011;9776;50.798;6.430;2023-06-10T04:07:46;11.20;;;9.45;;
19285;SDS011;9776;50.798;6.430;2023-06-10T04:10:13;10.38;;;9.27;;
19285;SDS011;9776;50.798;6.430;2023-06-10T04:12:41;12.18;;;9.63;;
19285;SDS011;9776;50.798;6.430;2023-06-10T04:15:08;11.45;;;9.10;;
19285;SDS011;9776;50.798;6.430;2023-06-10T04:17:35;10.00;;;9.00;;
19285;SDS011;9776;50.798;6.430;2023-06-10T04:20:04;12.15;;;10.02;;
19285;SDS011;9776;50.798;6.430;2023-06-10T04:22:33;14.15;;;9.23;;
19285;SDS011;9776;50.798;6.430;2023-06-10T04:24:59;12.13;;;10.05;;
19285;SDS011;9776;50.798;6.430;2023-06-10T04:27:26;12.30;;;9.35;;
19285;SDS011;9776;50.798;6.430;2023-06-10T04:29:54;11.32;;;9.45;;
19285;SDS011;9776;50.798;6.430;2023-06-10T04:32:20;11.52;;;9.95;;
19285;SDS011;9776;50.798;6.430;2023-06-10T04:34:47;12.65;;;9.63;;
19285;SDS011;9776;50.798;6.430;2023-06-10T04:37:14;12.50;;;9.65;;
19285;SDS011;9776;50.798;6.430;2023-06-10T04:39:41;10.45;;;8.98;;
19285;SDS011;9776;50.798;6.430;2023-06-10T04:42:07;11.00;;;9.40;;
19285;SDS011;9776;50.798;6.430;2023-06-10T04:44:34;16.58;;;9.30;;
19285;SDS011;9776;50.798;6.430;2023-06-10T04:47:02;10.27;;;9.25;;
19285;SDS011;9776;50.798;6.430;2023-06-10T04:49:29;13.70;;;9.35;;
19285;SDS011;9776;50.798;6.430;2023-06-10T04:51:56;10.60;;;8.98;;
19285;SDS011;9776;50.798;6.430;2023-06-10T04:54:23;10.70;;;9.20;;
19285;SDS011;9776;50.798;6.430;2023-06-10T04:56:49;11.18;;;9.88;;
19285;SDS011;9776;50.798;6.430;2023-06-10T04:59:16;10.88;;;9.43;;
19285;SDS011;9776;50.798;6.430;2023-06-10T05:01:42;13.50;;;10.07;;
19285;SDS011;9776;50.798;6.430;2023-06-10T05:04:10;13.63;;;10.27;;
19285;SDS011;9776;50.798;6.430;2023-06-10T05:06:37;14.18;;;9.88;;
19285;SDS011;9776;50.798;6.430;2023-06-10T05:09:04;11.43;;;9.65;;
19285;SDS011;9776;50.798;6.430;2023-06-10T05:11:30;11.38;;;9.40;;
19285;SDS011;9776;50.798;6.430;2023-06-10T05:13:57;13.02;;;9.55;;
19285;SDS011;9776;50.798;6.430;2023-06-10T05:16:23;13.13;;;9.45;;
19285;SDS011;9776;50.798;6.430;2023-06-10T05:18:50;13.38;;;9.75;;
19285;SDS011;9776;50.798;6.430;2023-06-10T05:21:18;12.60;;;9.65;;
19285;SDS011;9776;50.798;6.430;2023-06-10T05:23:45;13.30;;;9.40;;
19285;SDS011;9776;50.798;6.430;2023-06-10T05:26:12;12.07;;;9.25;;
19285;SDS011;9776;50.798;6.430;2023-06-10T05:28:39;11.82;;;9.60;;
19285;SDS011;9776;50.798;6.430;2023-06-10T05:31:05;12.75;;;9.10;;
19285;SDS011;9776;50.798;6.430;2023-06-10T05:33:32;11.65;;;9.68;;
19285;SDS011;9776;50.798;6.430;2023-06-10T05:35:59;11.60;;;9.15;;
19285;SDS011;9776;50.798;6.430;2023-06-10T05:38:27;14.32;;;9.57;;
19285;SDS011;9776;50.798;6.430;2023-06-10T05:40:53;12.18;;;9.75;;
19285;SDS011;9776;50.798;6.430;2023-06-10T05:43:21;12.93;;;8.93;;
19285;SDS011;9776;50.798;6.430;2023-06-10T05:45:48;12.52;;;9.10;;
19285;SDS011;9776;50.798;6.430;2023-06-10T05:48:15;10.25;;;8.90;;
19285;SDS011;9776;50.798;6.430;2023-06-10T05:50:41;10.77;;;8.70;;
19285;SDS011;9776;50.798;6.430;2023-06-10T05:53:13;13.02;;;9.52;;
19285;SDS011;9776;50.798;6.430;2023-06-10T05:55:41;13.23;;;9.50;;
19285;SDS011;9776;50.798;6.430;2023-06-10T05:58:08;12.38;;;10.00;;
19285;SDS011;9776;50.798;6.430;2023-06-10T06:00:35;13.85;;;9.15;;
19285;SDS011;9776;50.798;6.430;2023-06-10T06:03:02;12.90;;;10.50;;
19285;SDS011;9776;50.798;6.430;2023-06-10T06:05:28;13.55;;;10.05;;
19285;SDS011;9776;50.798;6.430;2023-06-10T06:07:59;18.33;;;9.95;;
19285;SDS011;9776;50.798;6.430;2023-06-10T06:10:26;13.40;;;9.77;;
19285;SDS011;9776;50.798;6.430;2023-06-10T06:12:54;16.92;;;10.40;;
19285;SDS011;9776;50.798;6.430;2023-06-10T06:15:20;16.13;;;10.30;;
19285;SDS011;9776;50.798;6.430;2023-06-10T06:17:47;14.95;;;10.52;;
19285;SDS011;9776;50.798;6.430;2023-06-10T06:20:14;13.00;;;8.80;;
19285;SDS011;9776;50.798;6.430;2023-06-10T06:22:40;12.02;;;9.00;;
19285;SDS011;9776;50.798;6.430;2023-06-10T06:25:07;14.05;;;9.45;;
19285;SDS011;9776;50.798;6.430;2023-06-10T06:27:34;12.52;;;8.38;;
19285;SDS011;9776;50.798;6.430;2023-06-10T06:30:02;11.43;;;8.52;;
19285;SDS011;9776;50.798;6.430;2023-06-10T06:32:29;13.00;;;8.70;;
19285;SDS011;9776;50.798;6.430;2023-06-10T06:34:55;11.45;;;8.98;;
19285;SDS011;9776;50.798;6.430;2023-06-10T06:37:22;13.95;;;8.32;;
19285;SDS011;9776;50.798;6.430;2023-06-10T06:39:50;13.90;;;8.77;;
19285;SDS011;9776;50.798;6.430;2023-06-10T06:42:17;8.93;;;7.75;;
19285;SDS011;9776;50.798;6.430;2023-06-10T06:44:43;11.20;;;8.18;;
19285;SDS011;9776;50.798;6.430;2023-06-10T06:47:11;8.48;;;7.55;;
19285;SDS011;9776;50.798;6.430;2023-06-10T06:49:38;7.97;;;7.00;;
19285;SDS011;9776;50.798;6.430;2023-06-10T06:52:05;10.55;;;6.90;;
19285;SDS011;9776;50.798;6.430;2023-06-10T06:54:32;7.70;;;6.70;;
19285;SDS011;9776;50.798;6.430;2023-06-10T06:56:58;9.32;;;6.97;;
19285;SDS011;9776;50.798;6.430;2023-06-10T06:59:25;8.18;;;6.18;;
19285;SDS011;9776;50.798;6.430;2023-06-10T07:01:52;8.07;;;7.10;;
19285;SDS011;9776;50.798;6.430;2023-06-10T07:04:20;8.85;;;6.47;;
19285;SDS011;9776;50.798;6.430;2023-06-10T07:06:47;8.52;;;6.78;;
19285;SDS011;9776;50.798;6.430;2023-06-10T07:09:14;7.05;;;6.35;;
19285;SDS011;9776;50.798;6.430;2023-06-10T07:11:40;9.38;;;6.78;;
19285;SDS011;9776;50.798;6.430;2023-06-10T07:14:07;8.45;;;6.05;;
19285;SDS011;9776;50.798;6.430;2023-06-10T07:16:34;13.82;;;6.20;;
19285;SDS011;9776;50.798;6.430;2023-06-10T07:19:00;8.77;;;6.18;;
19285;SDS011;9776;50.798;6.430;2023-06-10T07:21:29;10.88;;;5.95;;
19285;SDS011;9776;50.798;6.430;2023-06-10T07:23:57;8.07;;;5.97;;
19285;SDS011;9776;50.798;6.430;2023-06-10T07:26:23;8.77;;;6.35;;
19285;SDS011;9776;50.798;6.430;2023-06-10T07:28:50;12.10;;;6.30;;
19285;SDS011;9776;50.798;6.430;2023-06-10T07:31:17;8.07;;;6.00;;
19285;SDS011;9776;50.798;6.430;2023-06-10T07:33:44;8.32;;;5.95;;
19285;SDS011;9776;50.798;6.430;2023-06-10T07:36:10;8.27;;;5.68;;
19285;SDS011;9776;50.798;6.430;2023-06-10T07:38:38;8.13;;;5.68;;
19285;SDS011;9776;50.798;6.430;2023-06-10T07:41:07;7.15;;;5.65;;
19285;SDS011;9776;50.798;6.430;2023-06-10T07:43:34;7.20;;;5.32;;
19285;SDS011;9776;50.798;6.430;2023-06-10T07:46:00;7.07;;;5.75;;
19285;SDS011;9776;50.798;6.430;2023-06-10T07:48:27;6.35;;;5.13;;
19285;SDS011;9776;50.798;6.430;2023-06-10T07:50:53;6.95;;;5.32;;
19285;SDS011;9776;50.798;6.430;2023-06-10T07:53:20;8.55;;;5.88;;
19285;SDS011;9776;50.798;6.430;2023-06-10T07:55:48;6.32;;;5.45;;
19285;SDS011;9776;50.798;6.430;2023-06-10T07:58:15;8.27;;;5.75;;
19285;SDS011;9776;50.798;6.430;2023-06-10T08:00:41;7.75;;;5.88;;
19285;SDS011;9776;50.798;6.430;2023-06-10T08:03:08;8.30;;;5.30;;
19285;SDS011;9776;50.798;6.430;2023-06-10T08:05:34;5.85;;;5.25;;
19285;SDS011;9776;50.798;6.430;2023-06-10T08:08:01;5.97;;;4.95;;
19285;SDS011;9776;50.798;6.430;2023-06-10T08:10:28;5.63;;;5.03;;
19285;SDS011;9776;50.798;6.430;2023-06-10T08:12:56;6.40;;;5.28;;
19285;SDS011;9776;50.798;6.430;2023-06-10T08:15:22;7.70;;;5.28;;
19285;SDS011;9776;50.798;6.430;2023-06-10T08:17:49;10.27;;;5.50;;
19285;SDS011;9776;50.798;6.430;2023-06-10T08:20:16;6.45;;;5.32;;
19285;SDS011;9776;50.798;6.430;2023-06-10T08:22:43;8.30;;;4.93;;
19285;SDS011;9776;50.798;6.430;2023-06-10T08:25:10;6.35;;;5.18;;
19285;SDS011;9776;50.798;6.430;2023-06-10T08:27:37;8.52;;;4.97;;
19285;SDS011;9776;50.798;6.430;2023-06-10T08:30:05;5.82;;;4.97;;
19285;SDS011;9776;50.798;6.430;2023-06-10T08:32:35;10.15;;;5.43;;
19285;SDS011;9776;50.798;6.430;2023-06-10T08:35:01;8.23;;;5.30;;
19285;SDS011;9776;50.798;6.430;2023-06-10T08:37:28;8.13;;;5.00;;
19285;SDS011;9776;50.798;6.430;2023-06-10T08:39:55;7.88;;;4.85;;
19285;SDS011;9776;50.798;6.430;2023-06-10T08:42:22;7.70;;;4.88;;
19285;SDS011;9776;50.798;6.430;2023-06-10T08:44:53;7.95;;;5.18;;
19285;SDS011;9776;50.798;6.430;2023-06-10T08:47:23;5.47;;;4.97;;
19285;SDS011;9776;50.798;6.430;2023-06-10T08:49:52;5.53;;;4.88;;
19285;SDS011;9776;50.798;6.430;2023-06-10T08:52:21;8.98;;;4.70;;
19285;SDS011;9776;50.798;6.430;2023-06-10T08:54:52;5.57;;;4.40;;
19285;SDS011;9776;50.798;6.430;2023-06-10T08:57:22;6.47;;;5.03;;
19285;SDS011;9776;50.798;6.430;2023-06-10T08:59:49;5.82;;;5.15;;
19285;SDS011;9776;50.798;6.430;2023-06-10T09:02:16;6.72;;;5.00;;
19285;SDS011;9776;50.798;6.430;2023-06-10T09:04:46;5.70;;;4.88;;
19285;SDS011;9776;50.798;6.430;2023-06-10T09:07:13;6.20;;;4.68;;
19285;SDS011;9776;50.798;6.430;2023-06-10T09:09:41;5.88;;;5.00;;
19285;SDS011;9776;50.798;6.430;2023-06-10T09:12:09;5.10;;;4.32;;
19285;SDS011;9776;50.798;6.430;2023-06-10T09:14:35;5.15;;;4.65;;
19285;SDS011;9776;50.798;6.430;2023-06-10T09:17:02;5.38;;;4.57;;
19285;SDS011;9776;50.798;6.430;2023-06-10T09:19:30;8.18;;;5.25;;
19285;SDS011;9776;50.798;6.430;2023-06-10T09:21:58;5.07;;;4.57;;
19285;SDS011;9776;50.798;6.430;2023-06-10T09:24:25;5.82;;;4.80;;
19285;SDS011;9776;50.798;6.430;2023-06-10T09:26:54;9.05;;;4.70;;
19285;SDS011;9776;50.798;6.430;2023-06-10T09:29:28;5.75;;;4.82;;
19285;SDS011;9776;50.798;6.430;2023-06-10T09:31:55;5.35;;;4.85;;
19285;SDS011;9776;50.798;6.430;2023-06-10T09:34:24;5.18;;;4.65;;
19285;SDS011;9776;50.798;6.430;2023-06-10T09:36:51;5.05;;;4.53;;
19285;SDS011;9776;50.798;6.430;2023-06-10T09:39:20;7.95;;;4.55;;
19285;SDS011;9776;50.798;6.430;2023-06-10T09:41:47;4.90;;;4.40;;
19285;SDS011;9776;50.798;6.430;2023-06-10T09:44:14;6.68;;;4.80;;
19285;SDS011;9776;50.798;6.430;2023-06-10T09:46:41;6.63;;;4.93;;
19285;SDS011;9776;50.798;6.430;2023-06-10T09:49:08;6.80;;;4.78;;
19285;SDS011;9776;50.798;6.430;2023-06-10T09:51:35;5.15;;;4.60;;
19285;SDS011;9776;50.798;6.430;2023-06-10T09:54:02;6.15;;;4.75;;
19285;SDS011;9776;50.798;6.430;2023-06-10T09:56:34;5.05;;;4.30;;
19285;SDS011;9776;50.798;6.430;2023-06-10T09:59:01;7.15;;;4.82;;
19285;SDS011;9776;50.798;6.430;2023-06-10T10:01:29;5.22;;;4.60;;
19285;SDS011;9776;50.798;6.430;2023-06-10T10:03:58;6.15;;;4.65;;
19285;SDS011;9776;50.798;6.430;2023-06-10T10:06:25;5.35;;;3.90;;
19285;SDS011;9776;50.798;6.430;2023-06-10T10:08:52;6.22;;;4.57;;
19285;SDS011;9776;50.798;6.430;2023-06-10T10:11:20;4.93;;;4.15;;
19285;SDS011;9776;50.798;6.430;2023-06-10T10:13:49;4.82;;;4.43;;
19285;SDS011;9776;50.798;6.430;2023-06-10T10:16:17;5.00;;;4.50;;
19285;SDS011;9776;50.798;6.430;2023-06-10T10:18:47;4.80;;;4.30;;
19285;SDS011;9776;50.798;6.430;2023-06-10T10:21:20;5.53;;;4.20;;
19285;SDS011;9776;50.798;6.430;2023-06-10T10:23:51;5.93;;;4.60;;
19285;SDS011;9776;50.798;6.430;2023-06-10T10:26:21;8.48;;;4.50;;
19285;SDS011;9776;50.798;6.430;2023-06-10T10:28:53;5.07;;;4.57;;
19285;SDS011;9776;50.798;6.430;2023-06-10T10:31:27;6.93;;;4.28;;
19285;SDS011;9776;50.798;6.430;2023-06-10T10:33:59;5.07;;;4.10;;
19285;SDS011;9776;50.798;6.430;2023-06-10T10:36:28;6.15;;;4.25;;
19285;SDS011;9776;50.798;6.430;2023-06-10T10:38:55;6.25;;;4.45;;
19285;SDS011;9776;50.798;6.430;2023-06-10T10:41:23;5.43;;;4.38;;
19285;SDS011;9776;50.798;6.430;2023-06-10T10:43:52;5.72;;;4.28;;
19285;SDS011;9776;50.798;6.430;2023-06-10T10:46:20;5.70;;;4.78;;
19285;SDS011;9776;50.798;6.430;2023-06-10T10:48:49;5.38;;;4.63;;
19285;SDS011;9776;50.798;6.430;2023-06-10T10:51:19;4.82;;;4.13;;
19285;SDS011;9776;50.798;6.430;2023-06-10T10:56:37;6.72;;;4.57;;
19285;SDS011;9776;50.798;6.430;2023-06-10T10:59:06;4.82;;;4.32;;
19285;SDS011;9776;50.798;6.430;2023-06-10T11:01:40;6.25;;;4.38;;
19285;SDS011;9776;50.798;6.430;2023-06-10T11:04:10;4.85;;;4.28;;
19285;SDS011;9776;50.798;6.430;2023-06-10T11:06:37;6.93;;;4.32;;
19285;SDS011;9776;50.798;6.430;2023-06-10T11:11:52;5.75;;;4.13;;
19285;SDS011;9776;50.798;6.430;2023-06-10T11:14:25;5.00;;;4.28;;
19285;SDS011;9776;50.798;6.430;2023-06-10T11:16:53;4.65;;;4.15;;
19285;SDS011;9776;50.798;6.430;2023-06-10T11:19:32;4.57;;;4.03;;
19285;SDS011;9776;50.798;6.430;2023-06-10T11:22:00;6.45;;;4.07;;
19285;SDS011;9776;50.798;6.430;2023-06-10T11:24:28;4.78;;;4.15;;
19285;SDS011;9776;50.798;6.430;2023-06-10T11:26:54;4.32;;;3.92;;
19285;SDS011;9776;50.798;6.430;2023-06-10T11:29:22;5.05;;;4.22;;
19285;SDS011;9776;50.798;6.430;2023-06-10T11:31:49;5.97;;;3.90;;
19285;SDS011;9776;50.798;6.430;2023-06-10T11:34:23;4.65;;;3.75;;
19285;SDS011;9776;50.798;6.430;2023-06-10T11:36:52;6.65;;;4.32;;
19285;SDS011;9776;50.798;6.430;2023-06-10T11:39:19;4.47;;;3.65;;
19285;SDS011;9776;50.798;6.430;2023-06-10T11:41:48;4.38;;;3.97;;
19285;SDS011;9776;50.798;6.430;2023-06-10T11:44:16;5.57;;;4.05;;
19285;SDS011;9776;50.798;6.430;2023-06-10T11:46:44;5.50;;;4.40;;
19285;SDS011;9776;50.798;6.430;2023-06-10T11:49:11;5.35;;;3.97;;
19285;SDS011;9776;50.798;6.430;2023-06-10T11:51:39;5.45;;;3.67;;
19285;SDS011;9776;50.798;6.430;2023-06-10T11:54:13;5.43;;;3.97;;
19285;SDS011;9776;50.798;6.430;2023-06-10T11:56:41;4.38;;;3.97;;
19285;SDS011;9776;50.798;6.430;2023-06-10T11:59:07;6.10;;;4.28;;
19285;SDS011;9776;50.798;6.430;2023-06-10T12:01:34;4.53;;;4.10;;
19285;SDS011;9776;50.798;6.430;2023-06-10T12:04:05;6.60;;;3.70;;
19285;SDS011;9776;50.798;6.430;2023-06-10T12:06:39;5.80;;;3.67;;
19285;SDS011;9776;50.798;6.430;2023-06-10T12:09:07;4.75;;;3.90;;
19285;SDS011;9776;50.798;6.430;2023-06-10T12:11:38;6.35;;;3.88;;
19285;SDS011;9776;50.798;6.430;2023-06-10T12:14:05;5.20;;;3.80;;
19285;SDS011;9776;50.798;6.430;2023-06-10T12:16:32;4.13;;;3.72;;
19285;SDS011;9776;50.798;6.430;2023-06-10T12:19:04;4.65;;;4.00;;
19285;SDS011;9776;50.798;6.430;2023-06-10T12:21:32;5.82;;;4.07;;
19285;SDS011;9776;50.798;6.430;2023-06-10T12:24:04;4.93;;;4.40;;
19285;SDS011;9776;50.798;6.430;2023-06-10T12:26:36;4.70;;;4.30;;
19285;SDS011;9776;50.798;6.430;2023-06-10T12:34:38;5.10;;;4.60;;
19285;SDS011;9776;50.798;6.430;2023-06-10T12:37:06;7.03;;;4.70;;
19285;SDS011;9776;50.798;6.430;2023-06-10T12:39:38;4.65;;;4.25;;
19285;SDS011;9776;50.798;6.430;2023-06-10T12:42:06;5.70;;;4.47;;
19285;SDS011;9776;50.798;6.430;2023-06-10T12:44:35;7.32;;;4.63;;
19285;SDS011;9776;50.798;6.430;2023-06-10T12:47:09;6.53;;;4.57;;
19285;SDS011;9776;50.798;6.430;2023-06-10T12:49:39;6.65;;;4.78;;
19285;SDS011;9776;50.798;6.430;2023-06-10T12:52:06;5.15;;;4.60;;
19285;SDS011;9776;50.798;6.430;2023-06-10T12:54:33;6.85;;;4.65;;
19285;SDS011;9776;50.798;6.430;2023-06-10T12:57:00;6.68;;;4.80;;
19285;SDS011;9776;50.798;6.430;2023-06-10T12:59:27;7.93;;;5.22;;
19285;SDS011;9776;50.798;6.430;2023-06-10T13:01:54;5.00;;;4.50;;
19285;SDS011;9776;50.798;6.430;2023-06-10T13:04:21;5.45;;;4.45;;
19285;SDS011;9776;50.798;6.430;2023-06-10T13:06:49;6.30;;;4.93;;
19285;SDS011;9776;50.798;6.430;2023-06-10T13:09:16;5.00;;;4.50;;
19285;SDS011;9776;50.798;6.430;2023-06-10T13:11:42;5.65;;;4.55;;
19285;SDS011;9776;50.798;6.430;2023-06-10T13:14:10;7.85;;;4.78;;
19285;SDS011;9776;50.798;6.430;2023-06-10T13:16:37;4.80;;;4.30;;
19285;SDS011;9776;50.798;6.430;2023-06-10T13:19:04;5.47;;;4.53;;
19285;SDS011;9776;50.798;6.430;2023-06-10T13:21:31;9.15;;;4.80;;
19285;SDS011;9776;50.798;6.430;2023-06-10T13:23:59;7.00;;;4.75;;
19285;SDS011;9776;50.798;6.430;2023-06-10T13:26:26;5.15;;;4.65;;
19285;SDS011;9776;50.798;6.430;2023-06-10T13:28:53;6.05;;;4.63;;
19285;SDS011;9776;50.798;6.430;2023-06-10T13:31:19;5.00;;;4.50;;
19285;SDS011;9776;50.798;6.430;2023-06-10T13:33:46;7.03;;;4.45;;
19285;SDS011;9776;50.798;6.430;2023-06-10T13:36:13;7.07;;;4.55;;
19285;SDS011;9776;50.798;6.430;2023-06-10T13:38:40;6.13;;;4.95;;
19285;SDS011;9776;50.798;6.430;2023-06-10T13:41:08;5.20;;;4.45;;
19285;SDS011;9776;50.798;6.430;2023-06-10T13:43:35;7.60;;;4.32;;
19285;SDS011;9776;50.798;6.430;2023-06-10T13:46:01;5.13;;;4.63;;
19285;SDS011;9776;50.798;6.430;2023-06-10T13:48:28;6.30;;;4.80;;
19285;SDS011;9776;50.798;6.430;2023-06-10T13:50:55;6.10;;;4.55;;
19285;SDS011;9776;50.798;6.430;2023-06-10T13:53:21;4.80;;;4.30;;
19285;SDS011;9776;50.798;6.430;2023-06-10T13:55:48;4.57;;;4.13;;
19285;SDS011;9776;50.798;6.430;2023-06-10T13:58:16;6.75;;;4.68;;
19285;SDS011;9776;50.798;6.430;2023-06-10T14:00:43;6.90;;;4.82;;
19285;SDS011;9776;50.798;6.430;2023-06-10T14:03:09;7.05;;;4.70;;
19285;SDS011;9776;50.798;6.430;2023-06-10T14:05:36;6.45;;;4.80;;
19285;SDS011;9776;50.798;6.430;2023-06-10T14:08:03;5.63;;;4.60;;
19285;SDS011;9776;50.798;6.430;2023-06-10T14:10:29;6.38;;;4.72;;
19285;SDS011;9776;50.798;6.430;2023-06-10T14:12:56;4.93;;;4.43;;
19285;SDS011;9776;50.798;6.430;2023-06-10T14:15:24;6.30;;;4.65;;
19285;SDS011;9776;50.798;6.430;2023-06-10T14:17:51;4.80;;;4.30;;
19285;SDS011;9776;50.798;6.430;2023-06-10T14:20:17;6.18;;;4.25;;
19285;SDS011;9776;50.798;6.430;2023-06-10T14:22:44;4.53;;;4.13;;
19285;SDS011;9776;50.798;6.430;2023-06-10T14:25:10;6.38;;;4.32;;
19285;SDS011;9776;50.798;6.430;2023-06-10T14:27:37;5.93;;;4.05;;
19285;SDS011;9776;50.798;6.430;2023-06-10T14:30:04;6.45;;;4.30;;
19285;SDS011;9776;50.798;6.430;2023-06-10T14:32:33;4.45;;;4.05;;
19285;SDS011;9776;50.798;6.430;2023-06-10T14:34:59;6.22;;;4.53;;
19285;SDS011;9776;50.798;6.430;2023-06-10T14:37:26;4.82;;;4.32;;
19285;SDS011;9776;50.798;6.430;2023-06-10T14:39:53;5.00;;;4.10;;
19285;SDS011;9776;50.798;6.430;2023-06-10T14:42:19;6.05;;;4.35;;
19285;SDS011;9776;50.798;6.430;2023-06-10T14:44:46;6.15;;;4.10;;
19285;SDS011;9776;50.798;6.430;2023-06-10T14:47:12;6.00;;;4.10;;
19285;SDS011;9776;50.798;6.430;2023-06-10T14:49:40;6.50;;;4.28;;
19285;SDS011;9776;50.798;6.430;2023-06-10T14:52:08;4.78;;;4.07;;
19285;SDS011;9776;50.798;6.430;2023-06-10T14:54:35;4.47;;;4.07;;
19285;SDS011;9776;50.798;6.430;2023-06-10T14:57:02;6.07;;;4.28;;
19285;SDS011;9776;50.798;6.430;2023-06-10T14:59:29;7.50;;;4.60;;
19285;SDS011;9776;50.798;6.430;2023-06-10T15:01:55;6.13;;;5.03;;
19285;SDS011;9776;50.798;6.430;2023-06-10T15:04:22;7.35;;;5.25;;
19285;SDS011;9776;50.798;6.430;2023-06-10T15:06:50;7.15;;;5.50;;
19285;SDS011;9776;50.798;6.430;2023-06-10T15:09:17;7.55;;;5.68;;